createdAt,value
2022-09-18T00:01:36.662Z,100.00
2022-09-18T00:04:10.937Z,100.00
2022-09-18T00:06:42.910Z,100.00
2022-09-18T00:09:14.995Z,100.00
2022-09-18T00:11:50.099Z,100.00
2022-09-18T00:14:23.642Z,100.00
2022-09-18T00:16:51.411Z,100.00
2022-09-18T00:19:20.651Z,100.00
2022-09-18T00:21:51.742Z,100.00
2022-09-18T00:24:20.604Z,100.00
2022-09-18T00:26:48.485Z,100.00
2022-09-18T00:29:18.250Z,100.00
2022-09-18T00:31:46.475Z,100.00
2022-09-18T00:34:16.183Z,100.00
2022-09-18T00:36:44.511Z,100.00
2022-09-18T00:39:12.678Z,100.00
2022-09-18T00:41:43.481Z,100.00
2022-09-18T00:44:44.929Z,100.00
2022-09-18T00:47:11.951Z,100.00
2022-09-18T00:50:09.814Z,100.00
2022-09-18T00:53:02.011Z,100.00
2022-09-18T00:55:38.732Z,100.00
2022-09-18T00:58:06.931Z,100.00
2022-09-18T01:00:34.516Z,100.00
2022-09-18T01:03:03.041Z,100.00
2022-09-18T01:06:22.729Z,100.00
2022-09-18T01:09:45.344Z,100.00
2022-09-18T01:13:09.797Z,100.00
2022-09-18T01:16:04.941Z,100.00
2022-09-18T01:19:40.045Z,100.00
2022-09-18T01:23:20.723Z,100.00
2022-09-18T01:26:46.581Z,100.00
2022-09-18T01:30:06.252Z,100.00
2022-09-18T01:33:31.583Z,100.00
2022-09-18T01:36:07.888Z,100.00
2022-09-18T01:38:52.839Z,100.00
2022-09-18T01:41:29.877Z,100.00
2022-09-18T01:44:26.872Z,100.00
2022-09-18T01:46:59.397Z,100.00
2022-09-18T01:49:45.907Z,100.00
2022-09-18T01:52:40.637Z,100.00
2022-09-18T01:55:20.871Z,100.00
2022-09-18T01:58:12.023Z,100.00
2022-09-18T02:00:51.327Z,100.00
2022-09-18T02:03:41.454Z,100.00
2022-09-18T02:06:26.492Z,100.00
2022-09-18T02:08:57.388Z,100.00
2022-09-18T02:11:24.872Z,100.00
2022-09-18T02:14:13.281Z,100.00
2022-09-18T02:16:51.420Z,100.00
2022-09-18T02:19:50.189Z,100.00
2022-09-18T02:22:24.518Z,100.00
2022-09-18T02:24:55.503Z,100.00
2022-09-18T02:27:26.097Z,100.00
2022-09-18T02:29:53.974Z,100.00
2022-09-18T02:32:21.320Z,100.00
2022-09-18T02:34:49.214Z,100.00
2022-09-18T02:38:04.988Z,100.00
2022-09-18T02:41:14.948Z,100.00
2022-09-18T02:44:18.637Z,100.00
2022-09-18T02:47:36.789Z,100.00
2022-09-18T02:50:47.987Z,100.00
2022-09-18T02:54:03.677Z,100.00
2022-09-18T02:56:57.888Z,100.00
2022-09-18T02:59:41.119Z,100.00
2022-09-18T03:02:09.672Z,100.00
2022-09-18T03:04:37.003Z,100.00
2022-09-18T03:07:04.491Z,100.00
2022-09-18T03:09:34.519Z,100.00
2022-09-18T03:12:02.870Z,100.00
2022-09-18T03:14:30.175Z,100.00
2022-09-18T03:16:57.447Z,100.00
2022-09-18T03:19:24.708Z,100.00
2022-09-18T03:21:59.962Z,100.00
2022-09-18T03:24:29.323Z,100.00
2022-09-18T03:26:56.614Z,100.00
2022-09-18T03:29:23.916Z,100.00
2022-09-18T03:31:51.215Z,100.00
2022-09-18T03:34:18.579Z,100.00
2022-09-18T03:36:47.903Z,100.00
2022-09-18T03:39:16.355Z,100.00
2022-09-18T03:41:43.720Z,100.00
2022-09-18T03:44:12.776Z,100.00
2022-09-18T03:46:40.206Z,100.00
2022-09-18T03:49:07.744Z,100.00
2022-09-18T03:51:35.019Z,100.00
2022-09-18T03:54:02.381Z,100.00
2022-09-18T03:56:29.778Z,100.00
2022-09-18T03:58:57.062Z,100.00
2022-09-18T04:01:24.617Z,100.00
2022-09-18T04:03:52.000Z,100.00
2022-09-18T04:06:19.261Z,100.00
2022-09-18T04:08:46.517Z,100.00
2022-09-18T04:11:13.809Z,100.00
2022-09-18T04:13:42.297Z,100.00
2022-09-18T04:16:10.072Z,100.00
2022-09-18T04:18:37.382Z,100.00
2022-09-18T04:21:04.740Z,100.00
2022-09-18T04:23:32.025Z,100.00
2022-09-18T04:25:59.641Z,100.00
2022-09-18T04:28:26.901Z,100.00
2022-09-18T04:30:54.205Z,100.00
2022-09-18T04:33:21.549Z,100.00
2022-09-18T04:35:48.819Z,100.00
2022-09-18T04:38:16.089Z,100.00
2022-09-18T04:40:43.385Z,100.00
2022-09-18T04:43:11.668Z,100.00
2022-09-18T04:45:38.950Z,100.00
2022-09-18T04:48:06.272Z,100.00
2022-09-18T04:50:33.536Z,100.00
2022-09-18T04:53:00.793Z,100.00
2022-09-18T04:55:28.057Z,100.00
2022-09-18T04:57:55.380Z,100.00
2022-09-18T05:00:22.702Z,100.00
2022-09-18T05:02:50.033Z,100.00
2022-09-18T05:05:17.324Z,100.00
2022-09-18T05:07:44.595Z,100.00
2022-09-18T05:10:11.935Z,100.00
2022-09-18T05:12:45.045Z,100.00
2022-09-18T05:15:12.596Z,100.00
2022-09-18T05:17:40.279Z,100.00
2022-09-18T05:20:13.329Z,100.00
2022-09-18T05:22:47.975Z,100.00
2022-09-18T05:25:15.290Z,100.00
2022-09-18T05:27:52.515Z,100.00
2022-09-18T05:30:20.200Z,100.00
2022-09-18T05:33:04.971Z,100.00
2022-09-18T05:35:35.920Z,100.00
2022-09-18T05:38:04.121Z,100.00
2022-09-18T05:40:38.069Z,100.00
2022-09-18T05:43:07.304Z,100.00
2022-09-18T05:45:35.170Z,100.00
2022-09-18T05:48:06.672Z,100.00
2022-09-18T05:50:36.538Z,100.00
2022-09-18T05:53:17.190Z,100.00
2022-09-18T05:55:44.790Z,100.00
2022-09-18T05:58:19.228Z,100.00
2022-09-18T06:00:47.068Z,100.00
2022-09-18T06:03:16.813Z,100.00
2022-09-18T06:05:54.133Z,100.00
2022-09-18T06:08:21.877Z,100.00
2022-09-18T06:10:49.175Z,100.00
2022-09-18T06:13:19.132Z,100.00
2022-09-18T06:15:56.112Z,100.00
2022-09-18T06:18:23.567Z,100.00
2022-09-18T06:20:58.672Z,100.00
2022-09-18T06:23:28.719Z,100.00
2022-09-18T06:26:07.312Z,100.00
2022-09-18T06:28:36.077Z,100.00
2022-09-18T06:31:05.846Z,100.00
2022-09-18T06:33:36.282Z,100.00
2022-09-18T06:36:08.291Z,100.00
2022-09-18T06:38:35.560Z,100.00
2022-09-18T06:41:02.920Z,100.00
2022-09-18T06:43:30.208Z,100.00
2022-09-18T06:45:58.486Z,100.00
2022-09-18T06:48:26.880Z,100.00
2022-09-18T06:51:02.265Z,100.00
2022-09-18T06:53:29.708Z,100.00
2022-09-18T06:56:03.389Z,100.00
2022-09-18T06:58:31.863Z,100.00
2022-09-18T07:01:01.075Z,100.00
2022-09-18T07:03:28.552Z,100.00
2022-09-18T07:05:55.874Z,100.00
2022-09-18T07:08:23.137Z,100.00
2022-09-18T07:10:50.432Z,100.00
2022-09-18T07:13:17.813Z,100.00
2022-09-18T07:15:48.109Z,100.00
2022-09-18T07:18:15.480Z,100.00
2022-09-18T07:20:42.765Z,100.00
2022-09-18T07:23:10.154Z,100.00
2022-09-18T07:25:37.435Z,100.00
2022-09-18T07:28:11.204Z,100.00
2022-09-18T07:30:39.632Z,100.00
2022-09-18T07:33:10.074Z,100.00
2022-09-18T07:35:37.420Z,100.00
2022-09-18T07:38:06.647Z,100.00
2022-09-18T07:40:34.946Z,100.00
2022-09-18T07:43:11.705Z,100.00
2022-09-18T07:45:39.634Z,100.00
2022-09-18T07:48:08.078Z,100.00
2022-09-18T07:50:35.470Z,100.00
2022-09-18T07:53:05.488Z,100.00
2022-09-18T07:55:36.885Z,100.00
2022-09-18T07:58:07.322Z,100.00
2022-09-18T08:00:37.658Z,100.00
2022-09-18T08:03:13.023Z,100.00
2022-09-18T08:05:41.989Z,100.00
2022-09-18T08:08:15.861Z,100.00
2022-09-18T08:10:45.171Z,100.00
2022-09-18T08:13:13.371Z,100.00
2022-09-18T08:15:43.054Z,100.00
2022-09-18T08:18:11.649Z,100.00
2022-09-18T08:20:39.580Z,100.00
2022-09-18T08:23:09.758Z,100.00
2022-09-18T08:25:37.392Z,100.00
2022-09-18T08:28:07.659Z,100.00
2022-09-18T08:30:35.844Z,100.00
2022-09-18T08:33:08.189Z,100.00
2022-09-18T08:35:35.659Z,100.00
2022-09-18T08:38:03.637Z,100.00
2022-09-18T08:40:43.788Z,100.00
2022-09-18T08:44:10.425Z,100.00
2022-09-18T08:46:57.818Z,100.00
2022-09-18T08:50:00.377Z,100.00
2022-09-18T08:52:35.019Z,100.00
2022-09-18T08:55:27.780Z,100.00
2022-09-18T08:58:06.144Z,100.00
2022-09-18T09:01:01.509Z,100.00
2022-09-18T09:04:02.298Z,100.00
2022-09-18T09:07:03.343Z,100.00
2022-09-18T09:10:17.649Z,100.00
2022-09-18T09:13:22.409Z,100.00
2022-09-18T09:16:13.823Z,100.00
2022-09-18T09:19:07.680Z,100.00
2022-09-18T09:22:18.931Z,100.00
2022-09-18T09:25:35.822Z,100.00
2022-09-18T09:28:29.036Z,100.00
2022-09-18T09:31:07.319Z,100.00
2022-09-18T09:33:53.327Z,100.00
2022-09-18T09:36:28.484Z,100.00
2022-09-18T09:39:14.037Z,100.00
2022-09-18T09:42:16.804Z,95.95
2022-09-18T09:45:17.210Z,91.94
2022-09-18T09:48:08.712Z,94.88
2022-09-18T09:51:40.556Z,92.74
2022-09-18T09:54:11.749Z,94.15
2022-09-18T09:57:20.389Z,92.56
2022-09-18T10:00:19.373Z,90.44
2022-09-18T10:03:42.896Z,88.91
2022-09-18T10:07:01.961Z,86.78
2022-09-18T10:10:49.341Z,81.38
2022-09-18T10:13:46.770Z,82.88
2022-09-18T10:16:25.760Z,79.87
2022-09-18T10:18:53.189Z,74.06
2022-09-18T10:21:27.134Z,71.80
2022-09-18T10:24:12.783Z,72.63
2022-09-18T10:26:54.460Z,67.58
2022-09-18T10:29:21.764Z,65.98
2022-09-18T10:31:53.602Z,60.82
2022-09-18T10:34:43.353Z,58.04
2022-09-18T10:37:29.232Z,58.61
2022-09-18T10:40:01.350Z,54.83
2022-09-18T10:42:38.233Z,55.16
2022-09-18T10:45:29.929Z,52.67
2022-09-18T10:48:25.999Z,54.20
2022-09-18T10:51:01.735Z,54.36
2022-09-18T10:53:38.704Z,55.50
2022-09-18T10:56:21.459Z,49.95
2022-09-18T10:58:48.863Z,47.14
2022-09-18T11:01:16.615Z,47.94
2022-09-18T11:04:06.603Z,47.86
2022-09-18T11:06:37.514Z,50.13
2022-09-18T11:09:11.033Z,46.83
2022-09-18T11:11:45.824Z,47.56
2022-09-18T11:14:31.698Z,44.49
2022-09-18T11:17:02.135Z,45.08
2022-09-18T11:19:36.155Z,48.53
2022-09-18T11:22:26.872Z,48.30
2022-09-18T11:25:29.753Z,48.41
2022-09-18T11:28:00.345Z,44.34
2022-09-18T11:30:36.049Z,44.64
2022-09-18T11:33:33.717Z,45.81
2022-09-18T11:36:10.238Z,45.42
2022-09-18T11:38:46.981Z,45.48
2022-09-18T11:41:36.495Z,44.05
2022-09-18T11:44:25.161Z,45.10
2022-09-18T11:47:42.780Z,44.48
2022-09-18T11:50:26.237Z,45.94
2022-09-18T11:53:27.863Z,46.36
2022-09-18T11:56:39.193Z,46.23
2022-09-18T11:59:54.922Z,43.88
2022-09-18T12:03:27.890Z,42.90
2022-09-18T12:06:38.399Z,41.92
2022-09-18T12:09:18.771Z,42.21
2022-09-18T12:12:09.776Z,41.24
2022-09-18T12:15:03.299Z,41.96
2022-09-18T12:18:08.661Z,42.58
2022-09-18T12:21:14.571Z,41.99
2022-09-18T12:23:42.052Z,41.56
2022-09-18T12:26:51.591Z,41.35
2022-09-18T12:30:13.076Z,39.82
2022-09-18T12:33:16.459Z,39.93
2022-09-18T12:36:38.664Z,40.17
2022-09-18T12:40:23.472Z,40.03
2022-09-18T12:43:55.123Z,39.87
2022-09-18T12:46:51.901Z,39.46
2022-09-18T12:50:26.869Z,39.07
2022-09-18T12:54:06.385Z,38.51
2022-09-18T12:57:43.716Z,37.61
2022-09-18T13:00:15.032Z,39.93
2022-09-18T13:02:57.961Z,40.06
2022-09-18T13:05:43.378Z,39.83
2022-09-18T13:08:51.725Z,40.50
2022-09-18T13:11:50.225Z,38.00
2022-09-18T13:14:43.008Z,39.04
2022-09-18T13:17:25.488Z,39.79
2022-09-18T13:20:42.728Z,39.14
2022-09-18T13:23:36.988Z,39.27
2022-09-18T13:26:15.648Z,39.08
2022-09-18T13:28:44.588Z,39.41
2022-09-18T13:31:32.444Z,39.70
2022-09-18T13:34:17.932Z,40.39
2022-09-18T13:39:27.014Z,38.86
2022-09-18T13:41:58.499Z,39.00
2022-09-18T13:44:36.100Z,39.18
2022-09-18T13:47:16.066Z,40.00
2022-09-18T13:49:56.944Z,41.11
2022-09-18T13:52:33.767Z,40.49
2022-09-18T13:55:25.384Z,40.30
2022-09-18T13:58:31.128Z,41.51
2022-09-18T14:01:01.659Z,40.39
2022-09-18T14:03:41.336Z,39.77
2022-09-18T14:06:36.596Z,40.43
2022-09-18T14:09:58.923Z,38.86
2022-09-18T14:12:34.460Z,38.87
2022-09-18T14:15:26.568Z,39.58
2022-09-18T14:18:22.723Z,40.38
2022-09-18T14:21:13.513Z,39.66
2022-09-18T14:23:46.553Z,39.21
2022-09-18T14:26:37.119Z,40.66
2022-09-18T14:29:16.603Z,39.32
2022-09-18T14:31:56.911Z,40.30
2022-09-18T14:34:41.716Z,42.11
2022-09-18T14:37:35.155Z,44.72
2022-09-18T14:40:22.574Z,46.59
2022-09-18T14:42:50.864Z,46.45
2022-09-18T14:45:31.469Z,45.88
2022-09-18T14:48:19.107Z,45.70
2022-09-18T14:51:03.092Z,46.26
2022-09-18T14:53:31.977Z,46.74
2022-09-18T14:56:08.635Z,47.04
2022-09-18T14:58:41.638Z,47.41
2022-09-18T15:01:30.142Z,49.25
2022-09-18T15:04:02.500Z,49.91
2022-09-18T15:06:45.152Z,50.22
2022-09-18T15:09:20.439Z,52.97
2022-09-18T15:12:01.923Z,53.03
2022-09-18T15:14:44.085Z,52.02
2022-09-18T15:17:26.701Z,52.32
2022-09-18T15:20:17.680Z,51.37
2022-09-18T15:22:44.963Z,53.63
2022-09-18T15:25:21.358Z,56.23
2022-09-18T15:27:49.907Z,57.46
2022-09-18T15:30:25.284Z,57.83
2022-09-18T15:33:05.702Z,56.93
2022-09-18T15:35:37.513Z,57.41
2022-09-18T15:38:24.885Z,59.84
2022-09-18T15:40:55.589Z,60.49
2022-09-18T15:43:43.475Z,58.41
2022-09-18T15:46:44.375Z,58.50
2022-09-18T15:49:34.275Z,59.99
2022-09-18T15:52:02.217Z,60.86
2022-09-18T15:54:29.483Z,59.76
2022-09-18T15:57:00.861Z,60.17
2022-09-18T15:59:40.787Z,59.04
2022-09-18T16:02:37.588Z,62.57
2022-09-18T16:05:15.279Z,59.91
2022-09-18T16:08:04.596Z,62.38
2022-09-18T16:10:34.880Z,60.94
2022-09-18T16:13:22.323Z,61.47
2022-09-18T16:16:13.978Z,64.23
2022-09-18T16:19:02.819Z,67.45
2022-09-18T16:21:31.424Z,64.96
2022-09-18T16:24:01.344Z,65.89
2022-09-18T16:26:36.412Z,65.77
2022-09-18T16:29:18.391Z,66.70
2022-09-18T16:31:47.147Z,68.11
2022-09-18T16:34:28.812Z,68.26
2022-09-18T16:36:56.905Z,70.70
2022-09-18T16:39:27.082Z,71.71
2022-09-18T16:41:54.739Z,71.06
2022-09-18T16:44:25.724Z,71.46
2022-09-18T16:47:04.953Z,69.09
2022-09-18T16:49:43.744Z,69.64
2022-09-18T16:52:12.600Z,71.71
2022-09-18T16:54:40.264Z,69.35
2022-09-18T16:57:23.652Z,74.57
2022-09-18T16:59:51.508Z,73.18
2022-09-18T17:02:24.349Z,74.26
2022-09-18T17:04:53.664Z,73.33
2022-09-18T17:07:20.939Z,71.82
2022-09-18T17:09:48.324Z,70.38
2022-09-18T17:12:15.648Z,72.61
2022-09-18T17:14:42.928Z,74.38
2022-09-18T17:17:11.571Z,76.89
2022-09-18T17:19:40.872Z,77.65
2022-09-18T17:22:09.280Z,76.49
2022-09-18T17:24:37.662Z,76.77
2022-09-18T17:27:06.255Z,77.70
2022-09-18T17:29:34.783Z,75.30
2022-09-18T17:32:02.475Z,74.24
2022-09-18T17:34:30.120Z,74.43
2022-09-18T17:36:57.404Z,72.52
2022-09-18T17:39:24.924Z,75.84
2022-09-18T17:41:52.203Z,74.82
2022-09-18T17:44:20.215Z,75.55
2022-09-18T17:46:51.354Z,75.33
2022-09-18T17:49:20.581Z,73.11
2022-09-18T17:51:48.781Z,73.58
2022-09-18T17:54:16.996Z,73.22
2022-09-18T17:56:44.428Z,74.52
2022-09-18T17:59:12.164Z,74.50
2022-09-18T18:01:46.070Z,75.24
2022-09-18T18:04:15.232Z,71.37
2022-09-18T18:06:42.710Z,72.80
2022-09-18T18:09:10.313Z,72.42
2022-09-18T18:11:38.334Z,74.04
2022-09-18T18:14:06.384Z,74.68
2022-09-18T18:16:34.577Z,74.06
2022-09-18T18:19:08.503Z,73.19
2022-09-18T18:21:36.057Z,74.21
2022-09-18T18:24:10.091Z,75.16
2022-09-18T18:26:40.738Z,75.45
2022-09-18T18:29:18.968Z,75.55
2022-09-18T18:31:49.242Z,74.13
2022-09-18T18:34:22.348Z,78.23
2022-09-18T18:36:50.507Z,81.49
2022-09-18T18:39:19.964Z,81.86
2022-09-18T18:41:47.580Z,82.45
2022-09-18T18:44:15.064Z,81.62
2022-09-18T18:46:42.889Z,82.52
2022-09-18T18:49:15.312Z,83.87
2022-09-18T18:51:48.436Z,85.08
2022-09-18T18:54:22.113Z,87.46
2022-09-18T18:56:50.534Z,84.99
2022-09-18T18:59:22.216Z,83.89
2022-09-18T19:01:49.845Z,83.81
2022-09-18T19:04:21.401Z,84.17
2022-09-18T19:06:49.396Z,85.73
2022-09-18T19:09:24.565Z,83.17
2022-09-18T19:11:53.656Z,84.89
2022-09-18T19:14:26.065Z,85.04
2022-09-18T19:16:55.131Z,82.26
2022-09-18T19:19:28.209Z,85.14
2022-09-18T19:21:59.945Z,84.39
2022-09-18T19:24:28.591Z,84.27
2022-09-18T19:26:55.907Z,85.27
2022-09-18T19:29:23.279Z,86.19
2022-09-18T19:31:51.437Z,85.34
2022-09-18T19:34:21.481Z,85.63
2022-09-18T19:36:50.141Z,83.59
2022-09-18T19:39:21.271Z,83.92
2022-09-18T19:42:12.263Z,83.52
2022-09-18T19:44:54.343Z,83.36
2022-09-18T19:47:41.814Z,84.16
2022-09-18T19:50:35.892Z,83.55
2022-09-18T19:53:03.587Z,82.36
2022-09-18T19:55:30.911Z,82.63
2022-09-18T19:58:00.204Z,84.46
2022-09-18T20:00:27.656Z,83.77
2022-09-18T20:02:59.795Z,82.85
2022-09-18T20:05:27.165Z,83.14
2022-09-18T20:07:54.454Z,86.10
2022-09-18T20:10:22.916Z,84.49
2022-09-18T20:12:52.548Z,84.33
2022-09-18T20:15:20.289Z,83.50
2022-09-18T20:17:47.647Z,83.91
2022-09-18T20:20:16.568Z,84.39
2022-09-18T20:22:44.073Z,87.27
2022-09-18T20:25:13.428Z,91.14
2022-09-18T20:27:42.577Z,95.35
2022-09-18T20:30:12.608Z,95.48
2022-09-18T20:32:40.671Z,95.15
2022-09-18T20:35:08.815Z,95.82
2022-09-18T20:37:36.977Z,97.46
2022-09-18T20:40:08.917Z,98.19
2022-09-18T20:42:36.235Z,96.36
2022-09-18T20:45:04.068Z,98.69
2022-09-18T20:47:36.655Z,95.00
2022-09-18T20:50:13.584Z,95.50
2022-09-18T20:52:44.315Z,97.32
2022-09-18T20:55:17.344Z,95.79
2022-09-18T20:57:46.452Z,95.37
2022-09-18T21:00:17.109Z,95.11
2022-09-18T21:02:50.679Z,91.05
2022-09-18T21:05:18.073Z,89.65
2022-09-18T21:07:45.763Z,89.37
2022-09-18T21:10:16.551Z,89.41
2022-09-18T21:12:43.858Z,91.09
2022-09-18T21:15:16.498Z,90.48
2022-09-18T21:17:43.880Z,88.98
2022-09-18T21:20:12.107Z,90.50
2022-09-18T21:22:57.979Z,88.17
2022-09-18T21:25:25.444Z,88.13
2022-09-18T21:27:55.733Z,88.82
2022-09-18T21:30:26.806Z,88.70
2022-09-18T21:32:55.763Z,90.93
2022-09-18T21:35:23.260Z,89.64
2022-09-18T21:37:51.857Z,88.82
2022-09-18T21:40:19.231Z,88.25
2022-09-18T21:42:47.557Z,90.54
2022-09-18T21:45:20.644Z,90.51
2022-09-18T21:47:50.290Z,89.46
2022-09-18T21:50:17.588Z,89.23
2022-09-18T21:52:48.368Z,90.03
2022-09-18T21:55:15.666Z,90.79
2022-09-18T21:57:43.050Z,87.78
2022-09-18T22:00:11.558Z,90.32
2022-09-18T22:02:39.415Z,88.15
2022-09-18T22:05:09.106Z,88.67
2022-09-18T22:07:36.501Z,88.26
2022-09-18T22:10:04.799Z,88.29
2022-09-18T22:12:32.797Z,87.66
2022-09-18T22:15:00.062Z,85.46
2022-09-18T22:17:27.619Z,87.15
2022-09-18T22:19:56.424Z,87.90
2022-09-18T22:22:23.764Z,86.97
2022-09-18T22:24:55.441Z,85.92
2022-09-18T22:27:24.124Z,87.15
2022-09-18T22:29:51.425Z,85.30
2022-09-18T22:32:19.693Z,83.76
2022-09-18T22:34:46.987Z,86.38
2022-09-18T22:37:15.331Z,85.53
2022-09-18T22:39:42.593Z,87.18
2022-09-18T22:42:10.808Z,87.01
2022-09-18T22:44:38.843Z,85.59
2022-09-18T22:47:06.181Z,84.57
2022-09-18T22:49:33.887Z,84.07
2022-09-18T22:52:01.392Z,85.33
2022-09-18T22:54:28.923Z,85.49
2022-09-18T22:56:59.040Z,85.43
2022-09-18T22:59:28.199Z,86.26
2022-09-18T23:02:04.772Z,87.94
2022-09-18T23:04:34.346Z,88.30
2022-09-18T23:07:03.361Z,89.45
2022-09-18T23:09:31.094Z,90.18
2022-09-18T23:11:59.446Z,91.01
2022-09-18T23:14:31.121Z,91.91
2022-09-18T23:17:00.858Z,95.35
2022-09-18T23:19:32.944Z,96.75
2022-09-18T23:22:00.860Z,98.89
2022-09-18T23:24:28.486Z,100.00
2022-09-18T23:26:58.244Z,100.00
2022-09-18T23:29:28.383Z,100.00
2022-09-18T23:31:57.527Z,100.00
2022-09-18T23:34:33.657Z,100.00
2022-09-18T23:37:01.752Z,100.00
2022-09-18T23:39:34.136Z,100.00
2022-09-18T23:42:05.304Z,100.00
2022-09-18T23:44:33.152Z,100.00
2022-09-18T23:47:01.391Z,100.00
2022-09-18T23:49:30.624Z,100.00
2022-09-18T23:51:59.625Z,100.00
2022-09-18T23:54:31.419Z,100.00
2022-09-18T23:56:59.029Z,100.00
2022-09-18T23:59:27.627Z,100.00
